Portada
METAR-TAF:

METAR-TAF

Aeropuertos :

Aurillac, Francia

latitud: 44-53N, longitud: 002-25E, altitud: 639 m

Observación

El informe se hizo hace 24 minutos, a las 22:30 UTC
Viento 5 kt del este
Temperatura 11°C
Humedad 87%
Presión 1017 hPa
Visibilidad 10 km o más
Nubes dispersas a una altura de 4000 ft
Cielo nuboso a una altura de 4600 ft

METAR: LFLW 162230Z AUTO 09005KT 9999 SCT040 BKN046 11/09 Q1017

Hora: 00:54 (22:54 UTC)

Pronóstico

El informe se hizo hace 8 horas y 54 minutos, a las 14:00 UTC
Pronóstico válido del 16 a las 15 UTC al 16 a las 24 UTC
Viento 5 kt del sur-suroeste
Visibilidad 10 km o más
sin nubes por debajo de 1500 m y sin presencia de cumulonimbus.
Evolucionando progresivamente
del 16 a las 16 UTC al 16 a las 18 UTC
Viento 3 kt con dirección variable

TAF: LFLW 161400Z 1615/1624 20005KT CAVOK BECMG 1616/1618 VRB03KT

Observaciones y pronósticos meteorológicos de más de 4000 aeropuertos (mensajes METAR y TAF).

Los puntos amarillos y rojos representan las estaciones disponibles.

Ponga el ratón en el punto deseado para ver el nombre de la estación.

Haga clic para ver las observaciones y los pronósticos meteorológicos.

Para cambiar el mapa : haga clic en los botones verdes con una cruz de color negro para hacer un zoom, en el botón verde con un guión para alejar o en las flechas verdes para mapas adyacentes.


METAR-TAF: